Time;durP1;ratioP1;P1;durP2;ratioP2;P2;SDS_P1;SDS_P2;PMS_P1;PMS_P2;Temp;Humidity;BMP_temperature;BMP_pressure;BME280_temperature;BME280_humidity;BME280_pressure;Samples;Min_cycle;Max_cycle;Signal;HPM_P1;HPM_P2
2021/09/02 00:02:19;;;;;;;11.15;4.50;;;;;;;;;;6164232;28;20161;-69
2021/09/02 00:05:21;;;;;;;12.40;4.93;;;;;;;;;;6173090;28;20042;-72
2021/09/02 00:08:23;;;;;;;10.35;4.43;;;;;;;;;;6175892;28;20581;-72
2021/09/02 00:11:24;;;;;;;8.13;4.82;;;;;;;;;;6172491;28;20038;-70
2021/09/02 00:14:26;;;;;;;8.38;4.25;;;;;;;;;;6177439;28;20050;-67
2021/09/02 00:17:28;;;;;;;7.28;3.75;;;;;;;;;;6168846;28;20046;-67
2021/09/02 00:20:31;;;;;;;7.30;4.25;;;;;;;;;;6169316;28;20176;-75
2021/09/02 00:23:32;;;;;;;6.18;4.07;;;;;;;;;;6174708;28;20163;-67
2021/09/02 00:26:34;;;;;;;9.05;4.82;;;;;;;;;;6171829;28;20528;-67
2021/09/02 00:29:35;;;;;;;6.13;4.10;;;;;;;;;;6179038;28;20092;-67
2021/09/02 00:32:38;;;;;;;6.32;4.18;;;;;;;;;;6164501;28;20049;-69
2021/09/02 00:35:40;;;;;;;5.13;3.53;;;;;;;;;;6175303;28;20391;-69
2021/09/02 00:38:41;;;;;;;6.15;4.22;;;;;;;;;;6182144;28;20039;-70
2021/09/02 00:41:43;;;;;;;4.50;4.05;;;;;;;;;;6177455;28;20050;-67
2021/09/02 00:44:46;;;;;;;8.13;4.40;;;;;;;;;;6185625;28;20411;-67
2021/09/02 00:47:49;;;;;;;;;;;;;;;;;;6172436;28;20042;-67
2021/09/02 00:50:50;;;;;;;6.97;3.88;;;;;;;;;;6170417;28;19983;-67
2021/09/02 00:53:54;;;;;;;4.03;3.60;;;;;;;;;;6184879;28;20043;-69
2021/09/02 00:56:55;;;;;;;;;;;;;;;;;;6186271;28;20104;-68
2021/09/02 00:59:59;;;;;;;7.43;4.05;;;;;;;;;;6190762;28;20016;-67
2021/09/02 01:03:02;;;;;;;8.02;4.30;;;;;;;;;;6144597;28;20042;-70
2021/09/02 01:06:04;;;;;;;4.63;3.42;;;;;;;;;;6179280;28;20449;-67
2021/09/02 01:09:06;;;;;;;5.35;3.70;;;;;;;;;;6181207;28;20046;-68
2021/09/02 01:12:30;;;;;;;6.07;3.55;;;;;;;;;;6178623;28;20124;-67
2021/09/02 01:15:32;;;;;;;6.30;4.10;;;;;;;;;;6175314;28;20153;-72
2021/09/02 01:18:36;;;;;;;6.50;3.70;;;;;;;;;;6178778;28;20394;-67
2021/09/02 01:21:38;;;;;;;9.45;3.70;;;;;;;;;;6172408;28;20593;-69
2021/09/02 01:24:40;;;;;;;5.20;3.72;;;;;;;;;;6188310;28;20043;-69
2021/09/02 01:27:43;;;;;;;6.63;4.25;;;;;;;;;;6178935;28;20052;-69
2021/09/02 01:30:45;;;;;;;6.30;3.93;;;;;;;;;;6174195;28;20038;-74
2021/09/02 01:33:48;;;;;;;4.68;4.20;;;;;;;;;;6178706;28;20065;-67
2021/09/02 01:36:50;;;;;;;7.60;4.40;;;;;;;;;;6175773;28;20044;-68
2021/09/02 01:39:54;;;;;;;7.20;4.55;;;;;;;;;;6184845;28;20174;-74
2021/09/02 01:42:55;;;;;;;9.90;4.55;;;;;;;;;;6175968;28;20106;-74
2021/09/02 01:45:57;;;;;;;5.85;5.00;;;;;;;;;;6175750;28;20176;-72
2021/09/02 01:48:58;;;;;;;7.80;5.55;;;;;;;;;;6175424;28;20121;-69
2021/09/02 01:52:00;;;;;;;5.90;4.45;;;;;;;;;;6180119;28;20610;-70
2021/09/02 01:55:04;;;;;;;7.13;4.50;;;;;;;;;;6190481;28;20046;-69
2021/09/02 01:58:06;;;;;;;6.78;5.43;;;;;;;;;;6184998;28;20046;-69
2021/09/02 02:01:08;;;;;;;7.47;5.22;;;;;;;;;;6179789;28;20584;-67
2021/09/02 02:04:09;;;;;;;7.90;4.78;;;;;;;;;;6184021;28;20034;-68
2021/09/02 02:07:11;;;;;;;8.57;5.18;;;;;;;;;;6177623;28;20050;-67
2021/09/02 02:10:17;;;;;;;8.85;4.50;;;;;;;;;;6182245;28;20675;-74
2021/09/02 02:13:19;;;;;;;9.13;5.57;;;;;;;;;;6182924;28;20061;-68
2021/09/02 02:16:20;;;;;;;6.03;5.28;;;;;;;;;;6173736;28;20043;-67
2021/09/02 02:19:22;;;;;;;11.90;4.88;;;;;;;;;;6179171;28;20125;-68
2021/09/02 02:22:23;;;;;;;7.03;5.00;;;;;;;;;;6175683;28;20112;-72
2021/09/02 02:25:27;;;;;;;11.32;5.63;;;;;;;;;;6175939;28;20483;-72
2021/09/02 02:28:28;;;;;;;;;;;;;;;;;;6179092;28;20051;-71
2021/09/02 02:31:30;;;;;;;6.43;4.95;;;;;;;;;;6172026;28;19926;-73
2021/09/02 02:34:32;;;;;;;8.55;5.07;;;;;;;;;;6179962;28;20177;-67
2021/09/02 02:37:33;;;;;;;8.20;5.03;;;;;;;;;;6177223;28;20046;-67
2021/09/02 02:40:36;;;;;;;7.75;4.97;;;;;;;;;;6179365;28;20081;-71
2021/09/02 02:43:38;;;;;;;5.95;5.03;;;;;;;;;;6186358;28;20054;-69
2021/09/02 02:46:40;;;;;;;7.32;5.35;;;;;;;;;;6171446;28;20182;-75
2021/09/02 02:49:41;;;;;;;6.05;5.03;;;;;;;;;;6181264;28;20096;-71
2021/09/02 02:52:43;;;;;;;5.57;4.88;;;;;;;;;;6176806;28;20779;-68
2021/09/02 02:55:46;;;;;;;6.22;4.85;;;;;;;;;;6175698;28;20923;-69
2021/09/02 02:58:48;;;;;;;5.00;4.25;;;;;;;;;;6179599;28;20042;-69
2021/09/02 03:01:50;;;;;;;7.50;4.57;;;;;;;;;;6173306;28;20144;-70
2021/09/02 03:04:51;;;;;;;7.32;4.22;;;;;;;;;;6184476;28;20597;-71
2021/09/02 03:07:53;;;;;;;5.20;4.43;;;;;;;;;;6176707;28;20050;-68
2021/09/02 03:10:56;;;;;;;8.10;4.95;;;;;;;;;;6177828;28;20152;-68
2021/09/02 03:13:57;;;;;;;9.63;4.53;;;;;;;;;;6188591;28;20566;-70
2021/09/02 03:16:59;;;;;;;6.35;4.60;;;;;;;;;;6174437;28;20107;-68
2021/09/02 03:20:00;;;;;;;5.75;4.18;;;;;;;;;;6187588;28;20683;-74
2021/09/02 03:23:02;;;;;;;9.15;4.72;;;;;;;;;;6178127;28;20046;-71
2021/09/02 03:26:05;;;;;;;6.22;5.20;;;;;;;;;;6182490;28;20233;-70
2021/09/02 03:29:07;;;;;;;5.68;4.30;;;;;;;;;;6188427;28;20042;-68
2021/09/02 03:32:09;;;;;;;6.53;4.60;;;;;;;;;;6175317;28;20054;-69
2021/09/02 03:35:10;;;;;;;7.82;4.40;;;;;;;;;;6182169;28;20042;-72
2021/09/02 03:38:12;;;;;;;5.90;4.50;;;;;;;;;;6182178;28;20145;-71
2021/09/02 03:41:15;;;;;;;8.45;4.65;;;;;;;;;;6178260;28;20046;-72
2021/09/02 03:44:17;;;;;;;6.25;4.28;;;;;;;;;;6187929;28;20136;-69
2021/09/02 03:47:18;;;;;;;4.68;3.83;;;;;;;;;;6175901;28;20053;-70
2021/09/02 03:50:20;;;;;;;6.93;4.60;;;;;;;;;;6175286;28;20101;-72
2021/09/02 03:53:22;;;;;;;5.82;4.80;;;;;;;;;;6182320;28;20112;-70
2021/09/02 03:56:25;;;;;;;5.82;4.32;;;;;;;;;;6180688;28;20441;-72
2021/09/02 03:59:26;;;;;;;6.85;4.20;;;;;;;;;;6181959;28;20046;-66
2021/09/02 04:02:28;;;;;;;6.95;4.43;;;;;;;;;;6168746;28;20495;-68
2021/09/02 04:05:29;;;;;;;8.73;4.90;;;;;;;;;;6176790;28;20047;-73
2021/09/02 04:08:31;;;;;;;5.28;4.22;;;;;;;;;;6182432;28;20425;-67
2021/09/02 04:11:34;;;;;;;7.45;4.75;;;;;;;;;;6174982;28;20097;-70
2021/09/02 04:14:35;;;;;;;6.03;3.70;;;;;;;;;;6183732;28;20537;-69
2021/09/02 04:17:37;;;;;;;6.25;4.35;;;;;;;;;;6170400;28;20039;-69
2021/09/02 04:20:39;;;;;;;5.60;4.53;;;;;;;;;;6170576;28;20129;-68
2021/09/02 04:23:40;;;;;;;4.80;4.30;;;;;;;;;;6189434;28;20414;-69
2021/09/02 04:26:43;;;;;;;5.90;4.05;;;;;;;;;;6178690;28;20046;-68
2021/09/02 04:29:45;;;;;;;7.97;5.07;;;;;;;;;;6192242;28;20057;-73
2021/09/02 04:32:47;;;;;;;7.32;4.28;;;;;;;;;;6174929;28;20116;-70
2021/09/02 04:35:48;;;;;;;7.57;4.32;;;;;;;;;;6179352;28;20077;-68
2021/09/02 04:38:50;;;;;;;6.05;4.40;;;;;;;;;;6184641;28;20104;-69
2021/09/02 04:41:53;;;;;;;11.45;4.63;;;;;;;;;;6177942;28;20100;-68
2021/09/02 04:44:54;;;;;;;10.27;4.95;;;;;;;;;;6183612;28;20042;-68
2021/09/02 04:47:56;;;;;;;10.93;4.57;;;;;;;;;;6171442;28;20520;-68
2021/09/02 04:50:58;;;;;;;7.95;4.47;;;;;;;;;;6177266;28;20069;-68
2021/09/02 04:53:59;;;;;;;6.80;4.00;;;;;;;;;;6182688;28;20050;-68
2021/09/02 04:57:02;;;;;;;13.93;4.95;;;;;;;;;;6180720;28;20061;-68
2021/09/02 05:00:05;;;;;;;14.40;4.60;;;;;;;;;;6181619;28;21249;-70
2021/09/02 05:03:07;;;;;;;7.57;4.60;;;;;;;;;;6169854;28;20625;-67
2021/09/02 05:06:09;;;;;;;6.97;4.50;;;;;;;;;;6173976;28;20133;-69
2021/09/02 05:09:10;;;;;;;6.90;4.75;;;;;;;;;;6179056;28;20050;-67
2021/09/02 05:12:13;;;;;;;6.78;4.40;;;;;;;;;;6181391;28;20062;-69
2021/09/02 05:15:15;;;;;;;5.65;4.28;;;;;;;;;;6178192;28;20047;-73
2021/09/02 05:18:16;;;;;;;6.10;4.28;;;;;;;;;;6176516;28;20576;-67
2021/09/02 05:21:18;;;;;;;7.43;4.35;;;;;;;;;;6176735;28;20046;-68
2021/09/02 05:24:19;;;;;;;7.90;4.30;;;;;;;;;;6183734;28;20042;-70
2021/09/02 05:27:22;;;;;;;7.03;4.38;;;;;;;;;;6180598;28;20069;-69
2021/09/02 05:30:24;;;;;;;8.95;4.88;;;;;;;;;;6178302;28;20154;-76
2021/09/02 05:33:25;;;;;;;6.50;4.43;;;;;;;;;;6181245;28;20104;-72
2021/09/02 05:36:27;;;;;;;8.00;4.18;;;;;;;;;;6178446;28;20112;-68
2021/09/02 05:39:29;;;;;;;5.65;4.25;;;;;;;;;;6182670;28;20058;-68
2021/09/02 05:42:32;;;;;;;5.35;3.72;;;;;;;;;;6177643;28;20169;-68
2021/09/02 05:45:33;;;;;;;5.65;3.97;;;;;;;;;;6181799;28;20437;-73
2021/09/02 05:48:35;;;;;;;5.70;3.92;;;;;;;;;;6181422;28;20043;-73
2021/09/02 05:51:36;;;;;;;5.97;4.22;;;;;;;;;;6179540;28;20164;-67
2021/09/02 05:54:38;;;;;;;6.80;4.10;;;;;;;;;;6190423;28;20047;-70
2021/09/02 05:57:43;;;;;;;5.90;4.05;;;;;;;;;;6186454;28;20051;-71
2021/09/02 06:00:44;;;;;;;11.52;4.30;;;;;;;;;;6180917;28;20042;-79
2021/09/02 06:03:46;;;;;;;7.20;4.65;;;;;;;;;;6193671;28;20181;-69
2021/09/02 06:06:48;;;;;;;11.27;4.32;;;;;;;;;;6179139;28;20129;-69
2021/09/02 06:09:49;;;;;;;6.93;3.92;;;;;;;;;;6182353;28;20144;-68
2021/09/02 06:12:53;;;;;;;5.90;4.45;;;;;;;;;;6179126;28;20137;-69
2021/09/02 06:15:54;;;;;;;6.50;4.10;;;;;;;;;;6178168;28;20057;-70
2021/09/02 06:18:56;;;;;;;7.13;4.30;;;;;;;;;;6182688;28;20113;-73
2021/09/02 06:21:57;;;;;;;5.28;4.32;;;;;;;;;;6180819;28;20141;-67
2021/09/02 06:25:00;;;;;;;7.03;5.78;;;;;;;;;;6183429;28;20122;-68
2021/09/02 06:28:03;;;;;;;7.53;5.00;;;;;;;;;;6179843;28;20128;-68
2021/09/02 06:31:05;;;;;;;6.13;5.03;;;;;;;;;;6168582;28;20050;-78
2021/09/02 06:34:06;;;;;;;14.55;5.72;;;;;;;;;;6185506;28;20050;-68
2021/09/02 06:37:08;;;;;;;6.75;5.25;;;;;;;;;;6177124;28;20054;-74
2021/09/02 06:40:11;;;;;;;6.20;4.70;;;;;;;;;;6184717;28;20510;-70
2021/09/02 06:43:14;;;;;;;7.57;5.47;;;;;;;;;;6183712;28;20055;-67
2021/09/02 06:46:15;;;;;;;7.30;5.47;;;;;;;;;;6176937;28;20568;-68
2021/09/02 06:49:19;;;;;;;5.75;5.05;;;;;;;;;;6165938;28;20137;-71
2021/09/02 06:52:21;;;;;;;6.30;5.45;;;;;;;;;;6170947;28;20057;-68
2021/09/02 06:55:22;;;;;;;9.82;5.68;;;;;;;;;;6181286;28;20153;-79
2021/09/02 06:58:25;;;;;;;5.70;5.13;;;;;;;;;;6188171;28;20120;-70
2021/09/02 07:01:27;;;;;;;6.72;5.22;;;;;;;;;;6177628;28;20050;-68
2021/09/02 07:04:28;;;;;;;8.43;5.53;;;;;;;;;;6182785;28;20043;-68
2021/09/02 07:07:30;;;;;;;7.75;5.95;;;;;;;;;;6176266;28;20551;-68
2021/09/02 07:10:32;;;;;;;7.45;5.85;;;;;;;;;;6179105;28;20146;-76
2021/09/02 07:13:35;;;;;;;9.60;5.70;;;;;;;;;;6186813;28;20364;-79
2021/09/02 07:16:36;;;;;;;10.93;5.97;;;;;;;;;;6175400;28;20133;-68
2021/09/02 07:19:38;;;;;;;7.75;6.22;;;;;;;;;;6187097;28;20113;-69
2021/09/02 07:22:39;;;;;;;8.15;7.30;;;;;;;;;;6173189;28;20049;-70
2021/09/02 07:25:41;;;;;;;7.55;6.05;;;;;;;;;;6176912;28;20121;-68
2021/09/02 07:28:44;;;;;;;9.30;6.10;;;;;;;;;;6186836;28;20069;-75
2021/09/02 07:31:45;;;;;;;;;;;;;;;;;;6181044;28;20204;-74
2021/09/02 07:34:49;;;;;;;8.65;6.40;;;;;;;;;;6181559;28;20065;-68
2021/09/02 07:37:51;;;;;;;9.05;6.88;;;;;;;;;;6177398;28;20038;-68
2021/09/02 07:40:53;;;;;;;10.13;6.72;;;;;;;;;;6185150;28;20553;-68
2021/09/02 07:43:56;;;;;;;10.50;6.90;;;;;;;;;;6185125;28;20092;-69
2021/09/02 07:46:57;;;;;;;11.05;6.32;;;;;;;;;;6172954;28;20054;-68
2021/09/02 07:49:59;;;;;;;9.48;6.90;;;;;;;;;;6183695;28;20138;-78
2021/09/02 07:53:01;;;;;;;6.57;5.90;;;;;;;;;;6166787;28;20049;-69
2021/09/02 07:56:03;;;;;;;8.30;6.20;;;;;;;;;;6175548;28;20042;-72
2021/09/02 07:59:06;;;;;;;6.63;5.97;;;;;;;;;;6180969;28;20069;-71
2021/09/02 08:02:08;;;;;;;5.95;5.20;;;;;;;;;;6170692;28;20104;-73
2021/09/02 08:05:11;;;;;;;8.45;5.78;;;;;;;;;;6174650;28;20495;-78
2021/09/02 08:08:16;;;;;;;7.03;5.45;;;;;;;;;;6176816;28;20072;-69
2021/09/02 08:11:18;;;;;;;6.65;5.80;;;;;;;;;;6177265;28;20101;-77
2021/09/02 08:14:21;;;;;;;7.03;5.45;;;;;;;;;;6183477;28;20062;-76
2021/09/02 08:17:22;;;;;;;;;;;;;;;;;;6175542;28;20542;-68
2021/09/02 08:20:24;;;;;;;8.35;5.78;;;;;;;;;;6178367;28;20020;-79
2021/09/02 08:23:25;;;;;;;9.32;6.05;;;;;;;;;;6183383;28;20089;-68
2021/09/02 08:26:28;;;;;;;8.73;4.80;;;;;;;;;;6177072;28;23550;-68
2021/09/02 08:29:30;;;;;;;7.93;4.60;;;;;;;;;;6180189;28;20135;-78
2021/09/02 08:32:32;;;;;;;;;;;;;;;;;;6176542;28;20125;-69
2021/09/02 08:35:34;;;;;;;15.15;5.90;;;;;;;;;;6173076;28;19932;-75
2021/09/02 08:38:38;;;;;;;8.93;5.00;;;;;;;;;;6182810;28;20182;-72
2021/09/02 08:41:40;;;;;;;6.05;5.18;;;;;;;;;;6180133;28;20057;-68
2021/09/02 08:44:44;;;;;;;7.20;5.20;;;;;;;;;;6181718;28;20441;-69
2021/09/02 08:47:47;;;;;;;10.77;4.50;;;;;;;;;;6173412;28;20182;-78
2021/09/02 08:50:48;;;;;;;5.30;4.80;;;;;;;;;;6179922;28;20053;-71
2021/09/02 08:53:53;;;;;;;9.23;4.65;;;;;;;;;;6184864;28;20074;-68
2021/09/02 08:56:55;;;;;;;6.63;5.57;;;;;;;;;;6180045;28;20065;-68
2021/09/02 08:59:58;;;;;;;5.07;4.47;;;;;;;;;;6187371;28;20201;-68
2021/09/02 09:03:01;;;;;;;4.50;4.10;;;;;;;;;;6176684;28;20051;-75
2021/09/02 09:06:06;;;;;;;4.60;3.78;;;;;;;;;;6171583;28;20370;-68
2021/09/02 09:09:12;;;;;;;7.75;3.92;;;;;;;;;;6179957;28;20138;-68
2021/09/02 09:12:32;;;;;;;4.22;2.85;;;;;;;;;;6178823;28;20050;-68
2021/09/02 09:15:37;;;;;;;6.72;4.63;;;;;;;;;;6185051;28;20046;-75
2021/09/02 09:18:44;;;;;;;8.52;4.53;;;;;;;;;;6181584;28;20129;-68
2021/09/02 09:21:58;;;;;;;8.38;4.18;;;;;;;;;;6182931;28;20144;-68
2021/09/02 09:25:01;;;;;;;7.07;3.22;;;;;;;;;;6186648;28;20054;-70
2021/09/02 09:28:03;;;;;;;5.53;3.80;;;;;;;;;;6181986;28;20049;-68
2021/09/02 09:31:28;;;;;;;6.57;3.90;;;;;;;;;;6176536;28;20065;-78
2021/09/02 09:34:29;;;;;;;4.40;2.85;;;;;;;;;;6187137;28;20050;-68
2021/09/02 09:37:31;;;;;;;8.35;4.10;;;;;;;;;;6180034;28;20051;-69
2021/09/02 09:40:33;;;;;;;4.27;3.87;;;;;;;;;;6184629;28;20177;-75
2021/09/02 09:43:35;;;;;;;15.23;3.83;;;;;;;;;;6189519;28;20545;-68
2021/09/02 09:46:38;;;;;;;4.17;2.60;;;;;;;;;;6175131;28;20046;-79
2021/09/02 09:49:45;;;;;;;3.95;3.05;;;;;;;;;;6177453;28;20046;-72
2021/09/02 09:52:47;;;;;;;4.68;3.58;;;;;;;;;;6177040;28;21302;-68
2021/09/02 09:55:49;;;;;;;4.57;3.67;;;;;;;;;;6175186;28;20104;-71
2021/09/02 09:58:53;;;;;;;3.70;3.00;;;;;;;;;;6185000;28;20050;-68
2021/09/02 10:01:56;;;;;;;7.85;3.00;;;;;;;;;;6176429;28;20090;-67
2021/09/02 10:04:58;;;;;;;6.38;3.15;;;;;;;;;;6178712;28;20499;-78
2021/09/02 10:07:59;;;;;;;6.13;3.78;;;;;;;;;;6178328;28;20053;-70
2021/09/02 10:11:03;;;;;;;7.70;2.65;;;;;;;;;;6175769;28;20066;-74
2021/09/02 10:14:05;;;;;;;3.60;3.10;;;;;;;;;;6187633;28;20042;-68
2021/09/02 10:17:08;;;;;;;7.03;2.83;;;;;;;;;;6175162;28;20267;-69
2021/09/02 10:20:13;;;;;;;9.15;2.50;;;;;;;;;;6175392;28;20133;-79
2021/09/02 10:23:22;;;;;;;4.07;2.25;;;;;;;;;;6179916;28;20133;-70
2021/09/02 10:26:30;;;;;;;3.58;1.80;;;;;;;;;;6174830;28;20121;-73
2021/09/02 10:29:34;;;;;;;5.80;2.35;;;;;;;;;;6163809;28;20523;-68
2021/09/02 10:32:37;;;;;;;4.30;2.10;;;;;;;;;;6178841;28;20137;-69
2021/09/02 10:35:39;;;;;;;3.53;2.53;;;;;;;;;;6183630;28;20038;-71
2021/09/02 10:38:42;;;;;;;7.75;6.13;;;;;;;;;;6190251;28;20089;-68
2021/09/02 10:41:47;;;;;;;16.05;13.77;;;;;;;;;;6183910;28;20402;-70
2021/09/02 10:44:50;;;;;;;17.92;13.68;;;;;;;;;;6188589;28;20050;-69
2021/09/02 10:47:53;;;;;;;3.05;2.30;;;;;;;;;;6179836;28;20177;-76
2021/09/02 10:50:57;;;;;;;10.48;2.58;;;;;;;;;;6174178;28;20529;-78
2021/09/02 10:54:02;;;;;;;4.45;2.10;;;;;;;;;;6176285;28;20096;-74
2021/09/02 10:57:05;;;;;;;4.30;1.70;;;;;;;;;;6176800;28;20075;-75
2021/09/02 11:00:08;;;;;;;6.72;2.63;;;;;;;;;;6175498;28;20038;-78
2021/09/02 11:03:15;;;;;;;4.85;2.45;;;;;;;;;;6176102;28;20043;-69
2021/09/02 11:06:17;;;;;;;3.90;2.38;;;;;;;;;;6176386;28;20475;-69
2021/09/02 11:09:30;;;;;;;3.00;2.00;;;;;;;;;;6186041;28;20486;-70
2021/09/02 11:12:32;;;;;;;3.50;1.92;;;;;;;;;;6180199;28;20474;-69
2021/09/02 11:15:35;;;;;;;5.40;2.33;;;;;;;;;;6179212;28;20034;-77
2021/09/02 11:18:45;;;;;;;3.70;2.00;;;;;;;;;;6184760;28;20466;-69
2021/09/02 11:21:47;;;;;;;6.00;1.90;;;;;;;;;;6179386;28;20497;-71
2021/09/02 11:24:50;;;;;;;3.40;1.73;;;;;;;;;;6184937;28;20125;-69
2021/09/02 11:27:59;;;;;;;2.92;2.08;;;;;;;;;;6177130;28;20043;-71
2021/09/02 11:31:10;;;;;;;5.75;1.63;;;;;;;;;;6181938;28;20521;-70
2021/09/02 11:34:13;;;;;;;2.53;1.60;;;;;;;;;;6179218;28;20090;-73
2021/09/02 11:37:15;;;;;;;4.20;1.77;;;;;;;;;;6181243;28;20164;-73
2021/09/02 11:40:24;;;;;;;3.38;1.63;;;;;;;;;;6183173;28;20051;-75
2021/09/02 11:43:26;;;;;;;5.03;1.75;;;;;;;;;;6179885;28;20178;-69
2021/09/02 11:46:28;;;;;;;2.40;1.42;;;;;;;;;;6181709;28;20046;-70
2021/09/02 11:49:31;;;;;;;1.90;1.60;;;;;;;;;;6178014;28;20043;-70
2021/09/02 11:52:40;;;;;;;3.42;1.60;;;;;;;;;;6173968;28;20173;-69
2021/09/02 11:55:43;;;;;;;4.43;1.50;;;;;;;;;;6173124;28;20050;-69
2021/09/02 11:58:46;;;;;;;4.05;1.40;;;;;;;;;;6176989;28;20137;-70
2021/09/02 12:01:49;;;;;;;3.38;1.35;;;;;;;;;;6167081;28;20090;-70
2021/09/02 12:04:52;;;;;;;2.95;1.42;;;;;;;;;;6179068;28;20105;-69
2021/09/02 12:07:56;;;;;;;3.83;1.30;;;;;;;;;;6171696;28;20100;-72
2021/09/02 12:10:58;;;;;;;1.73;1.20;;;;;;;;;;6173003;28;20054;-70
2021/09/02 12:14:14;;;;;;;3.50;1.60;;;;;;;;;;6184567;28;20077;-76
2021/09/02 12:17:15;;;;;;;5.05;1.48;;;;;;;;;;6171411;28;20290;-74
2021/09/02 12:20:25;;;;;;;;;;;;;;;;;;6180051;28;20649;-71
2021/09/02 12:23:27;;;;;;;3.30;1.60;;;;;;;;;;6176790;28;19929;-72
2021/09/02 12:26:45;;;;;;;3.85;1.35;;;;;;;;;;6169533;28;20065;-74
2021/09/02 12:29:49;;;;;;;3.35;1.33;;;;;;;;;;6174891;28;20073;-68
2021/09/02 12:33:08;;;;;;;4.90;1.60;;;;;;;;;;6161945;28;20070;-69
2021/09/02 12:36:18;;;;;;;1.40;1.30;;;;;;;;;;6171494;28;20096;-69
2021/09/02 12:39:21;;;;;;;1.88;1.50;;;;;;;;;;6177510;28;20058;-68
2021/09/02 12:42:24;;;;;;;4.97;1.40;;;;;;;;;;6177888;28;20141;-68
2021/09/02 12:45:27;;;;;;;2.00;1.33;;;;;;;;;;6176561;28;20042;-72
2021/09/02 12:48:29;;;;;;;3.90;1.40;;;;;;;;;;6173164;28;20421;-69
2021/09/02 12:51:32;;;;;;;2.05;1.40;;;;;;;;;;6171487;28;20457;-67
2021/09/02 12:55:16;;;;;;;3.25;1.70;;;;;;;;;;6188375;28;20069;-69
2021/09/02 12:58:18;;;;;;;3.63;1.30;;;;;;;;;;6158975;28;20057;-68
2021/09/02 13:01:20;;;;;;;2.58;1.27;;;;;;;;;;6172211;28;22632;-69
2021/09/02 13:04:21;;;;;;;1.77;1.50;;;;;;;;;;6177445;28;20101;-72
2021/09/02 13:07:24;;;;;;;2.85;1.30;;;;;;;;;;6174861;28;20520;-73
2021/09/02 13:10:28;;;;;;;2.28;1.33;;;;;;;;;;6176373;28;20137;-69
2021/09/02 13:13:30;;;;;;;3.58;1.45;;;;;;;;;;6184302;28;20050;-68
2021/09/02 13:16:32;;;;;;;2.17;1.50;;;;;;;;;;6171890;28;20511;-70
2021/09/02 13:19:33;;;;;;;1.88;1.40;;;;;;;;;;6182014;28;20184;-72
2021/09/02 13:22:37;;;;;;;3.33;1.50;;;;;;;;;;6174000;28;20490;-68
2021/09/02 13:25:38;;;;;;;4.28;1.48;;;;;;;;;;6176481;28;20046;-68
2021/09/02 13:28:40;;;;;;;2.78;1.30;;;;;;;;;;6181230;28;20564;-68
2021/09/02 13:31:41;;;;;;;2.35;1.55;;;;;;;;;;6174375;28;20038;-69
2021/09/02 13:34:43;;;;;;;7.22;1.90;;;;;;;;;;6183910;28;20078;-69
2021/09/02 13:37:48;;;;;;;2.65;1.50;;;;;;;;;;6179398;28;20043;-72
2021/09/02 13:40:49;;;;;;;3.90;1.50;;;;;;;;;;6179542;28;20046;-69
2021/09/02 13:43:51;;;;;;;2.83;1.90;;;;;;;;;;6184487;28;20181;-71
2021/09/02 13:46:52;;;;;;;3.60;1.50;;;;;;;;;;6169178;28;20046;-72
2021/09/02 13:49:54;;;;;;;1.70;1.35;;;;;;;;;;6181032;28;20057;-70
2021/09/02 13:52:57;;;;;;;2.60;1.73;;;;;;;;;;6177220;28;20137;-69
2021/09/02 13:55:58;;;;;;;2.83;1.73;;;;;;;;;;6179094;28;20073;-68
2021/09/02 13:59:00;;;;;;;1.50;1.40;;;;;;;;;;6186153;28;20641;-68
2021/09/02 14:02:01;;;;;;;5.88;1.60;;;;;;;;;;6173677;28;20050;-69
2021/09/02 14:05:03;;;;;;;2.90;1.70;;;;;;;;;;6178514;28;20057;-70
2021/09/02 14:08:06;;;;;;;2.08;1.35;;;;;;;;;;6175829;28;20101;-68
2021/09/02 14:11:08;;;;;;;2.40;1.40;;;;;;;;;;6171595;28;20140;-69
2021/09/02 14:14:09;;;;;;;3.05;1.40;;;;;;;;;;6177888;28;20112;-68
2021/09/02 14:17:11;;;;;;;2.28;1.50;;;;;;;;;;6172114;28;20116;-67
2021/09/02 14:20:13;;;;;;;1.98;1.40;;;;;;;;;;6172468;28;20379;-70
2021/09/02 14:23:16;;;;;;;4.72;1.67;;;;;;;;;;6179421;28;20058;-68
2021/09/02 14:26:18;;;;;;;1.63;1.48;;;;;;;;;;6170355;28;20141;-70
2021/09/02 14:29:19;;;;;;;1.60;1.50;;;;;;;;;;6180258;28;20096;-70
2021/09/02 14:32:21;;;;;;;2.03;1.70;;;;;;;;;;6169327;28;20094;-67
2021/09/02 14:35:22;;;;;;;5.57;2.25;;;;;;;;;;6172594;28;20529;-75
2021/09/02 14:38:25;;;;;;;4.57;1.42;;;;;;;;;;6179556;28;20145;-68
2021/09/02 14:41:27;;;;;;;2.25;1.60;;;;;;;;;;6171238;28;20135;-67
2021/09/02 14:44:28;;;;;;;4.40;1.50;;;;;;;;;;6182436;28;20057;-69
2021/09/02 14:47:30;;;;;;;1.92;1.60;;;;;;;;;;6164988;28;20054;-70
2021/09/02 14:50:32;;;;;;;1.65;1.50;;;;;;;;;;6171766;28;20180;-70
2021/09/02 14:53:34;;;;;;;4.05;1.70;;;;;;;;;;6180733;28;20186;-71
2021/09/02 14:56:36;;;;;;;2.90;1.65;;;;;;;;;;6176978;28;20047;-69
2021/09/02 14:59:38;;;;;;;2.22;1.70;;;;;;;;;;6179147;28;20137;-69
2021/09/02 15:02:40;;;;;;;3.70;1.70;;;;;;;;;;6164403;28;20148;-69
2021/09/02 15:05:42;;;;;;;2.03;1.60;;;;;;;;;;6168016;28;20142;-70
2021/09/02 15:08:45;;;;;;;5.70;1.88;;;;;;;;;;6175759;28;20546;-68
2021/09/02 15:11:46;;;;;;;4.45;1.70;;;;;;;;;;6173958;28;20475;-68
2021/09/02 15:14:48;;;;;;;3.45;1.80;;;;;;;;;;6179641;28;20054;-68
2021/09/02 15:17:49;;;;;;;2.95;1.90;;;;;;;;;;6166754;28;20047;-69
2021/09/02 15:20:51;;;;;;;5.57;2.10;;;;;;;;;;6173222;28;20133;-67
2021/09/02 15:23:54;;;;;;;;;;;;;;;;;;6182767;28;20048;-68
2021/09/02 15:26:55;;;;;;;3.67;1.80;;;;;;;;;;6171145;28;19968;-71
2021/09/02 15:29:57;;;;;;;3.15;2.10;;;;;;;;;;6176732;28;20054;-69
2021/09/02 15:32:59;;;;;;;4.63;1.80;;;;;;;;;;6167044;28;20090;-68
2021/09/02 15:36:01;;;;;;;5.85;2.10;;;;;;;;;;6170520;28;20125;-68
2021/09/02 15:39:04;;;;;;;3.92;1.73;;;;;;;;;;6181179;28;20085;-68
2021/09/02 15:42:06;;;;;;;3.78;1.65;;;;;;;;;;6170418;28;20081;-69
2021/09/02 15:45:08;;;;;;;4.75;1.60;;;;;;;;;;6180853;28;20046;-76
2021/09/02 15:48:10;;;;;;;3.22;2.00;;;;;;;;;;6167236;28;20146;-68
2021/09/02 15:51:11;;;;;;;;;;;;;;;;;;6171034;28;20134;-69
2021/09/02 15:54:14;;;;;;;2.25;1.50;;;;;;;;;;6176848;28;20012;-72
2021/09/02 15:57:16;;;;;;;6.47;1.92;;;;;;;;;;6173586;28;20100;-67
2021/09/02 16:00:18;;;;;;;3.78;1.73;;;;;;;;;;6145206;28;20535;-72
2021/09/02 16:03:19;;;;;;;5.20;2.58;;;;;;;;;;6170069;28;20093;-74
2021/09/02 16:06:21;;;;;;;4.03;1.80;;;;;;;;;;6171750;28;20081;-69
2021/09/02 16:09:24;;;;;;;2.70;1.60;;;;;;;;;;6180929;28;20104;-69
2021/09/02 16:12:25;;;;;;;6.47;1.75;;;;;;;;;;6170815;28;20158;-70
2021/09/02 16:15:27;;;;;;;6.13;2.05;;;;;;;;;;6172709;28;20137;-72
2021/09/02 16:18:29;;;;;;;5.25;2.00;;;;;;;;;;6170764;28;20113;-69
2021/09/02 16:21:31;;;;;;;3.67;1.90;;;;;;;;;;6167849;28;20177;-68
2021/09/02 16:24:34;;;;;;;3.70;1.77;;;;;;;;;;6182305;28;20071;-69
2021/09/02 16:27:36;;;;;;;5.38;1.90;;;;;;;;;;6175137;28;20050;-69
2021/09/02 16:30:38;;;;;;;5.35;2.38;;;;;;;;;;6171730;28;20050;-70
2021/09/02 16:33:40;;;;;;;3.95;1.75;;;;;;;;;;6180272;28;20043;-71
2021/09/02 16:36:42;;;;;;;;;;;;;;;;;;6176944;28;20435;-74
2021/09/02 16:39:45;;;;;;;4.30;1.70;;;;;;;;;;6182618;28;19952;-70
2021/09/02 16:42:50;;;;;;;6.05;1.77;;;;;;;;;;6175292;28;20181;-68
2021/09/02 16:45:51;;;;;;;6.30;1.80;;;;;;;;;;6175077;28;20053;-69
2021/09/02 16:48:54;;;;;;;4.97;1.90;;;;;;;;;;6175528;28;20051;-69
2021/09/02 16:51:56;;;;;;;7.10;2.00;;;;;;;;;;6173669;28;20053;-70
2021/09/02 16:54:59;;;;;;;4.47;2.10;;;;;;;;;;6184004;28;20133;-71
2021/09/02 16:58:00;;;;;;;5.30;1.85;;;;;;;;;;6178159;28;20401;-67
2021/09/02 17:01:02;;;;;;;4.97;1.73;;;;;;;;;;6171729;28;20105;-71
2021/09/02 17:04:04;;;;;;;3.30;1.80;;;;;;;;;;6184152;28;20548;-68
2021/09/02 17:07:05;;;;;;;4.28;1.90;;;;;;;;;;6182419;28;20210;-70
2021/09/02 17:10:10;;;;;;;4.03;1.90;;;;;;;;;;6178409;28;20054;-72
2021/09/02 17:13:12;;;;;;;4.82;2.28;;;;;;;;;;6177496;28;20046;-69
2021/09/02 17:16:13;;;;;;;4.45;2.22;;;;;;;;;;6170774;28;20180;-67
2021/09/02 17:19:15;;;;;;;9.05;2.50;;;;;;;;;;6182779;28;20593;-68
2021/09/02 17:22:18;;;;;;;5.43;2.50;;;;;;;;;;6171625;28;20308;-72
2021/09/02 17:25:21;;;;;;;5.97;2.30;;;;;;;;;;6179131;28;20046;-73
2021/09/02 17:28:23;;;;;;;4.85;2.15;;;;;;;;;;6180758;28;20153;-75
2021/09/02 17:31:24;;;;;;;6.47;2.42;;;;;;;;;;6170892;28;20137;-69
2021/09/02 17:34:27;;;;;;;6.63;3.05;;;;;;;;;;6179703;28;20089;-70
2021/09/02 17:37:28;;;;;;;6.25;2.30;;;;;;;;;;6171128;28;20261;-70
2021/09/02 17:40:31;;;;;;;5.10;2.00;;;;;;;;;;6179000;28;20046;-74
2021/09/02 17:43:33;;;;;;;6.03;2.00;;;;;;;;;;6182632;28;20137;-71
2021/09/02 17:46:35;;;;;;;4.22;2.00;;;;;;;;;;6177602;28;20130;-78
2021/09/02 17:49:39;;;;;;;4.97;1.92;;;;;;;;;;6189791;28;20573;-69
2021/09/02 17:52:41;;;;;;;5.38;2.17;;;;;;;;;;6175421;28;20730;-71
2021/09/02 17:55:44;;;;;;;3.00;1.92;;;;;;;;;;6181225;28;20182;-69
2021/09/02 17:58:45;;;;;;;;;;;;;;;;;;6187674;28;20190;-71
2021/09/02 18:01:47;;;;;;;13.50;2.50;;;;;;;;;;6155175;28;19922;-69
2021/09/02 18:04:48;;;;;;;4.18;2.13;;;;;;;;;;6176749;28;20565;-70
2021/09/02 18:07:50;;;;;;;4.90;2.00;;;;;;;;;;6174782;28;20173;-70
2021/09/02 18:10:53;;;;;;;4.95;1.95;;;;;;;;;;6184930;28;20089;-71
2021/09/02 18:13:54;;;;;;;;;;;;;;;;;;6186847;28;20052;-71
2021/09/02 18:16:56;;;;;;;3.63;2.10;;;;;;;;;;6175440;28;19992;-73
2021/09/02 18:19:58;;;;;;;5.45;2.30;;;;;;;;;;6186733;28;20421;-76